Latest Coastal Weather Observations for Frederick Reef

IDQ60701

Issued at 10:15 pm EST Sunday 23 November 2014 (issued every 10 minutes, with the page automatically refreshed every 10 minutes)

About coastal observations | Map of coastal stations | Coastal observations for QLD | Marine services | Other Formats
Station Details ID: 200701 Name: FREDERICK REEF Lat: -20.94 Lon: 154.40 Height: 4.9 m
Data from the previous 72 hours. | See also: Recent months for locations in Queensland
Date/Time
EST
Temp

°C
Wind Pressure Rain
since 9am
mm
Weather Cloud Vis
km
Sea
Height
m
Swell
Dir
 
Speed
knots
Gust
knots
hPa Trend Height
m
Period
s
Dir
23/10:00pm 25.4 E 1 3 1016.0 - - - - - - - - -
23/09:30pm 25.5 E 1 3 1016.0 - - - - - - - - -
23/09:00pm 25.5 CALM 0 3 1015.8 - - - - - - - - -
23/08:30pm 25.4 E 1 2 1015.7 - - - - - - - - -
23/08:00pm 25.5 E 1 4 1015.6 - - - - - - - - -
23/07:30pm 25.6 E 1 3 1015.4 - - - - - - - - -
23/07:00pm 25.5 E 1 3 1015.2 - - - - - - - - -
23/06:30pm 25.5 E 3 19 1015.0 - - - - - - - - -
23/06:00pm 25.6 E 17 19 1014.6 - - - - - - - - -
23/05:30pm 25.8 E 17 19 1014.8 - - - - - - - - -
23/05:00pm 25.8 E 16 17 1014.4 - - - - - - - - -
23/04:30pm 25.7 E 16 18 1014.4 - - - - - - - - -
23/04:03pm 25.6 E 15 18 1014.3 - - - - - - - - -
23/04:00pm 25.7 E 16 3 1014.0 - - - - - - - - -
23/03:30pm 25.7 E 15 16 1014.4 - - - - - - - - -
23/03:00pm 25.8 E 14 17 1014.2 - - - - - - - - -
23/02:30pm 25.4 ESE 15 18 1014.6 - - - - - - - - -
23/02:00pm 25.5 E 14 17 1014.4 - - - - - - - - -
23/01:30pm 25.2 ESE 14 16 1015.2 - - - - - - - - -
23/01:00pm 25.3 E 16 16 1015.0 - - - - - - - - -
23/12:30pm 25.6 E 16 17 1015.5 - - - - - - - - -
23/12:00pm 25.7 E 14 15 1015.5 - - - - - - - - -
23/11:30am 26.1 CALM 0 3 1016.2 - - - - - - - - -
23/11:00am 26.0 E 1 12 1016.0 - - - - - - - - -
23/10:30am 26.1 CALM 0 2 1016.4 - - - - - - - - -
23/10:00am 26.2 ENE 1 2 1016.3 - - - - - - - - -
23/09:30am 26.2 ENE 1 3 1016.7 - - - - - - - - -
23/09:00am 26.1 CALM 0 3 1016.3 - - - - - - - - -
23/08:30am 26.1 CALM 0 2 1016.5 - - - - - - - - -
23/08:00am 26.1 ENE 1 3 1016.1 - - - - - - - - -
23/07:30am 26.0 ENE 1 3 1016.1 - - - - - - - - -
23/07:00am 26.2 ENE 12 2 1015.7 - - - - - - - - -
23/06:30am 25.7 ENE 14 15 1015.7 - - - - - - - - -
23/06:00am 25.7 ENE 14 15 1015.1 - - - - - - - - -
23/05:30am 25.6 ENE 15 17 1014.9 - - - - - - - - -
23/05:00am 25.5 ENE 15 16 1014.3 - - - - - - - - -
23/04:30am 25.5 ENE 15 17 1014.2 - - - - - - - - -
23/04:20am 25.6 ENE 15 18 1014.1 - - - - - - - - -
23/04:00am 25.5 ENE 1 3 1013.7 - - - - - - - - -
23/03:30am 25.5 CALM 0 3 1013.8 - - - - - - - - -
23/03:00am 25.4 CALM 0 3 1013.8 - - - - - - - - -
23/02:30am 25.0 CALM 0 3 1013.7 - - - - - - - - -
23/02:00am 25.5 ENE 1 3 1013.8 - - - - - - - - -
23/01:30am 25.4 CALM 0 2 1014.0 - - - - - - - - -
23/01:00am 25.2 E 1 3 1013.8 - - - - - - - - -
23/12:30am 24.6 ENE 1 3 1014.6 - - - - - - - - -
23/12:00am 25.1 CALM 0 3 1015.0 - - - - - - - - -
 
Date/Time
EST
Temp

°C
Wind Pressure Rain
since 9am
mm
Weather Cloud Vis
km
Sea
Height
m
Swell
Dir
 
Speed
knots
Gust
knots
hPa Trend Height
m
Period
s
Dir
22/11:30pm 24.7 E 1 3 1015.3 - - - - - - - - -
22/11:00pm 25.3 E 1 3 1015.5 - - - - - - - - -
22/10:30pm 25.2 E 1 4 1015.7 - - - - - - - - -
22/10:00pm 25.5 E 1 3 1015.7 - - - - - - - - -
22/09:30pm 25.5 E 1 3 1015.7 - - - - - - - - -
22/09:00pm 25.5 ESE 1 3 1015.7 - - - - - - - - -
22/08:30pm 25.4 ESE 1 2 1015.4 - - - - - - - - -
22/08:00pm 25.5 ESE 1 3 1015.4 - - - - - - - - -
22/07:30pm 25.5 ESE 1 3 1015.2 - - - - - - - - -
22/07:00pm 25.6 ESE 1 3 1015.0 - - - - - - - - -
22/06:30pm 25.5 ESE 1 3 1014.8 - - - - - - - - -
22/06:00pm 25.6 ESE 15 17 1014.2 - - - - - - - - -
22/05:30pm 25.7 ESE 14 15 1014.2 - - - - - - - - -
22/05:00pm 25.7 ESE 14 15 1013.4 - - - - - - - - -
22/04:30pm 25.6 ESE 13 15 1013.5 - - - - - - - - -
22/04:00pm 25.7 ESE 12 13 1013.1 - - - - - - - - -
22/03:30pm 25.8 ESE 13 14 1013.4 - - - - - - - - -
22/03:00pm 25.6 ESE 12 13 1013.1 - - - - - - - - -
22/02:30pm 25.7 ESE 12 14 1013.9 - - - - - - - - -
22/02:00pm 25.7 ESE 11 13 1013.7 - - - - - - - - -
22/01:30pm 25.8 ESE 11 13 1014.3 - - - - - - - - -
22/01:00pm 25.7 ESE 11 13 1014.2 - - - - - - - - -
22/12:30pm 25.6 ESE 12 13 1014.9 - - - - - - - - -
22/12:00pm 25.8 E 10 11 1014.8 - - - - - - - - -
22/11:30am 25.8 ESE 11 12 1015.4 - - - - - - - - -
22/11:00am 25.8 ESE 10 11 1015.4 - - - - - - - - -
22/10:30am 25.7 ESE 11 12 1016.0 - - - - - - - - -
22/10:00am 26.0 E 10 11 1015.7 - - - - - - - - -
22/09:30am 26.0 E 9 11 1016.2 - - - - - - - - -
22/09:00am 26.1 E 10 11 1015.9 - - - - - - - - -
22/08:30am 26.0 ENE 11 12 1016.0 - - - - - - - - -
22/08:00am 26.0 E 11 12 1015.6 - - - - - - - - -
22/07:30am 26.0 E 11 13 1015.7 - - - - - - - - -
22/07:00am 26.1 E 12 14 1015.1 - - - - - - - - -
22/06:30am 26.0 E 12 14 1015.0 - - - - - - - - -
22/06:00am 25.7 ENE 12 14 1014.4 - - - - - - - - -
22/05:30am 25.3 E 13 15 1014.2 - - - - - - - - -
22/05:00am 25.1 E 12 14 1013.6 - - - - - - - - -
22/04:30am 25.1 E 10 12 1013.8 - - - - - - - - -
22/04:00am 25.2 CALM 0 2 1013.3 - - - - - - - - -
22/03:30am 25.3 CALM 0 3 1013.5 - - - - - - - - -
22/03:00am 25.2 CALM 0 3 1013.3 - - - - - - - - -
22/02:30am 25.3 CALM 0 2 1013.6 - - - - - - - - -
22/02:00am 25.2 E 1 3 1013.4 - - - - - - - - -
22/01:30am 25.3 CALM 0 5 1013.9 - - - - - - - - -
22/01:00am 25.3 CALM 0 2 1013.9 - - - - - - - - -
22/12:30am 25.3 ENE 1 3 1014.4 - - - - - - - - -
22/12:00am 25.4 ENE 1 3 1014.3 - - - - - - - - -
 
Date/Time
EST
Temp

°C
Wind Pressure Rain
since 9am
mm
Weather Cloud Vis
km
Sea
Height
m
Swell
Dir
 
Speed
knots
Gust
knots
hPa Trend Height
m
Period
s
Dir
21/11:30pm 25.3 ENE 1 3 1014.9 - - - - - - - - -
21/11:00pm 25.4 CALM 0 2 1014.8 - - - - - - - - -
21/10:30pm 25.5 CALM 0 2 1015.4 - - - - - - - - -
21/10:00pm 25.3 E 1 3 1015.4 - - - - - - - - -
21/09:30pm 25.4 CALM 0 3 1015.4 - - - - - - - - -
21/09:00pm 25.5 CALM 0 4 1015.0 - - - - - - - - -
21/08:30pm 25.6 CALM 0 2 1015.1 - - - - - - - - -
21/08:00pm 25.6 E 1 3 1014.7 - - - - - - - - -
21/07:30pm 25.6 CALM 0 4 1014.8 - - - - - - - - -
21/07:00pm 25.6 CALM 0 3 1014.2 - - - - - - - - -
21/06:30pm 25.6 E 1 3 1014.5 - - - - - - - - -
21/06:00pm 25.6 ESE 13 14 1014.2 - - - - - - - - -
21/05:30pm 25.7 E 13 14 1014.0 - - - - - - - - -
21/05:00pm 25.7 E 13 15 1013.4 - - - - - - - - -
21/04:30pm 25.7 E 13 14 1013.6 - - - - - - - - -
21/04:00pm 25.8 E 12 14 1013.2 - - - - - - - - -
21/03:30pm 25.9 E 12 13 1013.5 - - - - - - - - -
21/03:00pm 25.8 E 12 13 1013.3 - - - - - - - - -
21/02:30pm 25.9 E 12 13 1013.9 - - - - - - - - -
21/02:00pm 25.9 E 12 14 1013.7 - - - - - - - - -
21/01:30pm 25.8 ENE 11 14 1014.3 - - - - - - - - -
21/01:00pm 25.8 E 12 15 1014.3 - - - - - - - - -
21/12:30pm 25.9 E 13 15 1014.8 - - - - - - - - -
21/12:00pm 25.6 E 12 13 1014.7 - - - - - - - - -
21/11:30am 26.0 E 10 11 1015.5 - - - - - - - - -
21/11:00am 25.8 E 11 13 1015.4 - - - - - - - - -
21/10:30am 25.8 E 12 13 1015.8 - - - - - - - - -
21/10:00am 25.8 E 9 10 1015.7 - - - - - - - - -
21/09:30am 25.9 E 7 9 1016.0 - - - - - - - - -
21/09:00am 25.9 E 7 8 1015.7 - - - - - - - - -
21/08:30am 26.3 E 8 9 1016.1 - - - - - - - - -
21/08:00am 26.2 ENE 9 10 1015.9 - - - - - - - - -
21/07:30am 26.1 E 9 11 1015.9 - - - - - - - - -
21/07:00am 26.1 ENE 10 11 1015.5 - - - - - - - - -
21/06:30am 26.2 CALM 0 2 1015.7 - - - - - - - - -
21/06:00am 25.7 ENE 2 10 1015.2 - - - - - - - - -
21/05:30am 25.6 NE 9 10 1015.2 - - - - - - - - -
21/05:00am 25.3 ENE 10 11 1014.6 - - - - - - - - -
21/04:30am 25.3 CALM 0 2 1014.6 - - - - - - - - -
21/04:00am 25.3 CALM 0 4 1014.2 - - - - - - - - -
21/03:30am 25.4 NE 1 3 1014.5 - - - - - - - - -
21/03:00am 25.2 CALM 0 3 1014.2 - - - - - - - - -
21/02:30am 25.3 CALM 0 2 1014.3 - - - - - - - - -
21/02:00am 25.3 CALM 0 2 1014.1 - - - - - - - - -
21/01:30am 25.3 CALM 0 2 1014.6 - - - - - - - - -
21/01:00am 25.4 CALM 0 2 1014.4 - - - - - - - - -
21/12:30am 25.4 ENE 1 3 1015.2 - - - - - - - - -
21/12:00am 25.5 E 11 14 1015.2 - - - - - - - - -
 
Date/Time
EST
Temp

°C
Wind Pressure Rain
since 9am
mm
Weather Cloud Vis
km
Sea
Height
m
Swell
Dir
 
Speed
knots
Gust
knots
hPa Trend Height
m
Period
s
Dir
20/11:30pm 25.5 ENE 1 3 1015.8 - - - - - - - - -
20/11:00pm 25.5 CALM 0 2 1016.2 - - - - - - - - -
20/10:30pm 25.6 E 1 3 1016.6 - - - - - - - - -

Other Formats:

Comma delimited format used in spreadsheet applications
http://www.bom.gov.au/fwo/IDQ60701/IDQ60701.94393.axf

JavaScript Object Notation format (JSON) in row-major order
http://www.bom.gov.au/fwo/IDQ60701/IDQ60701.94393.json